createdAt,value
2018-11-29T07:06:38.047Z,32.70
2018-11-29T07:09:10.682Z,32.80
2018-11-29T07:11:41.648Z,31.60
2018-11-29T07:14:13.317Z,35.10
2018-11-29T07:16:44.372Z,37.60
2018-11-29T07:19:15.208Z,37.30
2018-11-29T07:21:54.680Z,35.80
2018-11-29T07:24:25.663Z,34.40
2018-11-29T07:26:56.415Z,33.30
2018-11-29T07:29:26.817Z,33.40
2018-11-29T07:31:57.716Z,32.80
2018-11-29T07:34:28.347Z,32.60
2018-11-29T07:36:58.771Z,32.80
2018-11-29T07:39:29.465Z,33.00
2018-11-29T07:41:59.767Z,32.90
2018-11-29T07:44:30.046Z,32.70
2018-11-29T07:46:59.711Z,32.60
2018-11-29T07:49:29.472Z,32.60
2018-11-29T07:51:59.068Z,32.50
2018-11-29T07:54:28.427Z,32.40
2018-11-29T07:56:58.000Z,32.40
2018-11-29T07:59:28.747Z,32.50
2018-11-29T08:01:58.611Z,32.10
2018-11-29T08:04:28.544Z,32.30
2018-11-29T08:06:58.185Z,32.40
2018-11-29T08:09:27.737Z,33.30
2018-11-29T08:11:58.174Z,32.80
2018-11-29T08:14:27.661Z,33.00
2018-11-29T08:16:58.238Z,32.80
2018-11-29T08:19:28.172Z,33.30
2018-11-29T08:21:57.971Z,33.60
2018-11-29T08:24:27.642Z,33.20
2018-11-29T08:26:57.177Z,33.30
2018-11-29T08:29:26.600Z,33.40
2018-11-29T08:31:56.017Z,33.70
2018-11-29T08:34:26.614Z,33.50
2018-11-29T08:36:56.188Z,33.20
2018-11-29T08:39:25.675Z,33.20
2018-11-29T08:41:55.235Z,33.40
2018-11-29T08:44:25.523Z,33.40
2018-11-29T08:46:55.399Z,33.60
2018-11-29T08:49:25.320Z,33.60
2018-11-29T08:51:54.709Z,33.80
2018-11-29T08:54:25.168Z,34.00
2018-11-29T08:56:54.774Z,33.60
2018-11-29T08:59:24.287Z,33.90
2018-11-29T09:01:53.960Z,33.70
2018-11-29T09:04:23.933Z,33.60
2018-11-29T09:06:53.536Z,33.70
2018-11-29T09:09:24.110Z,33.70
2018-11-29T09:11:53.875Z,33.90
2018-11-29T09:14:23.397Z,34.30
2018-11-29T09:16:53.140Z,33.70
2018-11-29T09:19:22.463Z,33.80
2018-11-29T09:21:51.809Z,33.70
2018-11-29T09:24:21.892Z,33.90
2018-11-29T09:26:51.386Z,34.10
2018-11-29T09:29:21.352Z,33.80
2018-11-29T09:31:52.145Z,33.80
2018-11-29T09:34:21.879Z,33.80
2018-11-29T09:36:51.083Z,33.80
2018-11-29T09:39:20.485Z,33.90
2018-11-29T09:41:50.596Z,33.90
2018-11-29T09:44:20.369Z,33.90
2018-11-29T09:46:50.946Z,34.10
2018-11-29T09:49:20.682Z,33.70
2018-11-29T09:51:50.640Z,33.90
2018-11-29T09:54:20.471Z,33.80
2018-11-29T09:56:49.974Z,33.80
2018-11-29T09:59:19.424Z,33.70
2018-11-29T10:01:49.080Z,33.70
2018-11-29T10:04:18.739Z,33.70
2018-11-29T10:06:48.405Z,33.80
2018-11-29T10:09:18.152Z,33.80
2018-11-29T10:11:48.342Z,34.00
2018-11-29T10:14:17.947Z,34.60
2018-11-29T10:16:47.860Z,34.30
2018-11-29T10:19:17.633Z,34.00
2018-11-29T10:21:47.539Z,34.10
2018-11-29T10:24:17.235Z,34.30
2018-11-29T10:26:46.984Z,35.30
2018-11-29T10:29:17.058Z,36.20
2018-11-29T10:31:46.661Z,35.50
2018-11-29T10:34:16.195Z,34.80
2018-11-29T10:36:45.600Z,34.90
2018-11-29T10:39:15.555Z,34.70
2018-11-29T10:41:45.299Z,34.60
2018-11-29T10:44:14.971Z,34.70
2018-11-29T10:46:45.710Z,34.50
2018-11-29T10:49:15.498Z,34.50
2018-11-29T10:51:45.292Z,34.10
2018-11-29T10:54:16.827Z,34.30
2018-11-29T10:56:45.553Z,34.40
2018-11-29T10:59:15.572Z,34.50
2018-11-29T11:01:46.013Z,34.20
2018-11-29T11:04:15.978Z,34.40
2018-11-29T11:06:46.019Z,34.50
2018-11-29T11:58:02.992Z,34.60
2018-11-29T12:00:32.909Z,35.70
2018-11-29T12:03:04.149Z,35.10
2018-11-29T12:05:35.021Z,34.90
2018-11-29T12:08:05.561Z,35.30
2018-11-29T12:10:35.540Z,34.90
2018-11-29T12:13:07.245Z,34.90
2018-11-29T12:15:38.141Z,35.30
2018-11-29T12:18:10.593Z,35.30
2018-11-29T12:20:40.812Z,34.90
2018-11-29T12:23:10.975Z,33.70
2018-11-29T12:25:41.220Z,36.10
2018-11-29T12:28:11.488Z,36.00
2018-11-29T12:30:45.583Z,35.90
2018-11-29T12:33:16.051Z,35.30
2018-11-29T12:35:46.900Z,35.10
2018-11-29T12:38:17.749Z,35.10
2018-11-29T12:40:47.565Z,34.90
2018-11-29T12:43:17.610Z,35.50
2018-11-29T12:45:47.994Z,34.70
2018-11-29T12:48:18.233Z,34.70
2018-11-29T12:50:48.268Z,35.10
2018-11-29T12:53:18.522Z,35.30
2018-11-29T12:55:48.979Z,35.10
2018-11-29T12:58:19.436Z,34.90
2018-11-29T13:00:50.109Z,35.30
2018-11-29T13:03:20.284Z,35.40
2018-11-29T13:05:49.792Z,35.20
2018-11-29T13:08:19.583Z,35.10
2018-11-29T13:10:49.230Z,35.10
2018-11-29T13:13:19.103Z,35.50
2018-11-29T13:15:48.814Z,35.50
2018-11-29T13:18:19.297Z,35.20
2018-11-29T13:20:48.829Z,35.20
2018-11-29T13:23:18.915Z,35.40
2018-11-29T13:25:49.002Z,35.80
2018-11-29T13:28:18.840Z,35.20
2018-11-29T13:30:48.317Z,35.30
2018-11-29T13:33:18.390Z,35.40
2018-11-29T13:35:48.753Z,36.20
2018-11-29T13:38:19.064Z,36.00
2018-11-29T13:40:51.185Z,35.20
2018-11-29T13:43:22.064Z,35.70
2018-11-29T14:01:07.549Z,35.30
2018-11-29T14:03:37.748Z,35.00
2018-11-29T14:06:07.843Z,35.00
2018-11-29T14:08:38.035Z,35.10
2018-11-29T14:11:08.139Z,35.50
2018-11-29T14:13:37.951Z,35.10
2018-11-29T14:16:08.167Z,34.80
2018-11-29T14:18:37.519Z,34.80
2018-11-29T14:21:07.446Z,34.50
2018-11-29T14:23:37.722Z,34.70
2018-11-29T14:26:07.683Z,34.90
2018-11-29T14:28:37.749Z,34.90
2018-11-29T14:31:07.523Z,34.60
2018-11-29T14:33:37.039Z,34.70
2018-11-29T14:36:06.664Z,35.10
2018-11-29T14:38:36.346Z,34.90
2018-11-29T14:41:05.754Z,34.50
2018-11-29T14:43:35.466Z,34.60
2018-11-29T14:46:05.326Z,34.50
2018-11-29T14:48:34.763Z,34.20
2018-11-29T14:51:04.535Z,34.70
2018-11-29T14:53:34.718Z,34.50
2018-11-29T14:56:04.405Z,34.70
2018-11-29T14:58:34.112Z,35.60
2018-11-29T15:01:03.459Z,34.60
2018-11-29T15:03:33.062Z,34.40
2018-11-29T15:06:02.568Z,34.80
2018-11-29T15:08:32.295Z,34.30
2018-11-29T15:11:01.613Z,34.40
2018-11-29T15:13:31.322Z,34.20
2018-11-29T15:16:01.498Z,34.40
2018-11-29T15:18:30.708Z,34.40
2018-11-29T15:21:00.595Z,34.50
2018-11-29T15:23:30.381Z,34.90
2018-11-29T15:25:59.685Z,35.10
2018-11-29T15:28:29.076Z,35.10
2018-11-29T15:30:58.786Z,34.80
2018-11-29T15:33:28.304Z,34.80
2018-11-29T15:35:57.850Z,34.80
2018-11-29T15:38:27.259Z,34.80
2018-11-29T15:40:56.776Z,34.70
2018-11-29T15:43:26.223Z,34.60
2018-11-29T15:45:55.782Z,34.50
2018-11-29T15:48:25.410Z,34.30
2018-11-29T15:50:54.914Z,34.50
2018-11-29T15:53:24.565Z,34.30
2018-11-29T15:55:53.925Z,35.00
2018-11-29T15:58:23.593Z,35.10
2018-11-29T16:00:53.284Z,35.10
2018-11-29T16:03:23.112Z,35.20
